createdAt,value
2023-05-19T00:01:25.269Z,2.20
2023-05-19T00:06:33.260Z,2.53
2023-05-19T00:11:38.487Z,2.90
2023-05-19T00:16:42.607Z,2.47
2023-05-19T00:21:45.725Z,2.00
2023-05-19T00:26:48.832Z,3.00
2023-05-19T00:31:52.021Z,2.35
2023-05-19T00:36:55.156Z,2.30
2023-05-19T00:41:58.283Z,2.15
2023-05-19T00:47:01.598Z,2.17
2023-05-19T00:52:07.187Z,2.20
2023-05-19T00:57:10.409Z,2.10
2023-05-19T01:02:13.701Z,2.03
2023-05-19T01:07:16.946Z,2.30
2023-05-19T01:12:20.369Z,1.73
2023-05-19T01:17:35.472Z,2.53
2023-05-19T01:23:00.654Z,1.88
2023-05-19T01:28:09.458Z,2.67
2023-05-19T01:33:15.023Z,2.38
2023-05-19T01:38:19.693Z,2.17
2023-05-19T01:43:26.198Z,2.53
2023-05-19T01:48:30.372Z,2.58
2023-05-19T01:53:34.135Z,2.58
2023-05-19T01:58:43.271Z,2.80
2023-05-19T02:04:08.084Z,2.47
2023-05-19T02:09:41.515Z,2.28
2023-05-19T02:15:00.458Z,2.22
2023-05-19T02:20:05.481Z,3.60
2023-05-19T02:25:09.420Z,3.83
2023-05-19T02:30:13.360Z,2.42
2023-05-19T02:35:16.534Z,4.35
2023-05-19T02:40:19.932Z,7.20
2023-05-19T02:45:23.833Z,6.85
2023-05-19T02:50:26.891Z,4.10
2023-05-19T02:55:30.080Z,4.00
2023-05-19T03:00:33.401Z,3.03
2023-05-19T03:05:37.179Z,2.70
2023-05-19T03:10:40.540Z,3.55
2023-05-19T03:15:43.674Z,5.18
2023-05-19T03:20:46.741Z,5.43
2023-05-19T03:25:49.851Z,5.03
2023-05-19T03:30:53.032Z,4.97
2023-05-19T03:36:00.306Z,5.70
2023-05-19T03:41:06.452Z,6.00
2023-05-19T03:46:10.537Z,5.82
2023-05-19T03:51:35.245Z,6.50
2023-05-19T03:56:57.236Z,7.05
2023-05-19T04:02:00.417Z,7.10
2023-05-19T04:07:03.682Z,6.07
2023-05-19T04:12:07.057Z,4.95
2023-05-19T04:17:10.236Z,3.83
2023-05-19T04:22:13.399Z,3.20
2023-05-19T04:27:18.220Z,4.35
2023-05-19T04:32:21.387Z,5.85
2023-05-19T04:37:28.328Z,6.50
2023-05-19T04:42:33.271Z,3.90
2023-05-19T04:47:38.558Z,4.78
2023-05-19T04:52:45.871Z,5.03
2023-05-19T04:57:49.068Z,4.22
2023-05-19T05:02:52.252Z,4.68
2023-05-19T05:07:57.839Z,3.47
2023-05-19T05:13:04.269Z,3.25
2023-05-19T05:18:07.924Z,4.43
2023-05-19T05:23:14.944Z,5.00
2023-05-19T05:28:19.925Z,3.70
2023-05-19T05:33:25.222Z,3.55
2023-05-19T05:38:28.395Z,3.83
2023-05-19T05:43:31.807Z,3.20
2023-05-19T05:48:39.007Z,3.30
2023-05-19T05:53:45.275Z,3.10
2023-05-19T05:58:51.038Z,4.28
2023-05-19T06:03:54.455Z,3.83
2023-05-19T06:09:00.162Z,3.53
2023-05-19T06:14:04.688Z,3.90
2023-05-19T06:19:33.623Z,4.22
2023-05-19T06:24:38.755Z,3.63
2023-05-19T06:29:44.877Z,3.55
2023-05-19T06:34:54.973Z,3.15
2023-05-19T06:39:58.326Z,3.03
2023-05-19T06:45:01.573Z,2.90
2023-05-19T06:50:11.334Z,2.72
2023-05-19T06:55:17.886Z,2.25
2023-05-19T07:00:24.003Z,2.83
2023-05-19T07:05:29.230Z,2.85
2023-05-19T07:10:35.002Z,3.05
2023-05-19T07:15:40.520Z,2.85
2023-05-19T07:20:43.854Z,2.75
2023-05-19T07:25:47.052Z,2.78
2023-05-19T07:30:50.266Z,2.70
2023-05-19T07:35:53.981Z,2.92
2023-05-19T07:40:57.249Z,2.78
2023-05-19T07:46:00.449Z,2.80
2023-05-19T07:51:03.751Z,2.40
2023-05-19T07:56:07.013Z,2.30
2023-05-19T08:01:10.078Z,2.50
2023-05-19T08:06:13.300Z,2.40
2023-05-19T08:11:16.904Z,2.58
2023-05-19T08:16:20.141Z,2.90
2023-05-19T08:21:23.449Z,2.30
2023-05-19T08:26:26.714Z,2.70
2023-05-19T08:31:29.913Z,1.90
2023-05-19T08:36:34.206Z,2.78
2023-05-19T08:41:37.405Z,3.97
2023-05-19T08:46:41.622Z,2.80
2023-05-19T08:51:58.915Z,2.58
2023-05-19T08:57:02.648Z,2.63
2023-05-19T09:02:07.191Z,2.60
2023-05-19T09:07:11.232Z,2.65
2023-05-19T09:12:14.760Z,2.40
2023-05-19T09:17:19.021Z,2.90
2023-05-19T09:22:22.194Z,2.55
2023-05-19T09:27:25.302Z,3.65
2023-05-19T09:32:28.585Z,2.40
2023-05-19T09:37:32.579Z,2.40
2023-05-19T09:42:38.588Z,2.63
2023-05-19T09:47:42.488Z,2.60
2023-05-19T09:52:45.885Z,3.78
2023-05-19T09:57:49.391Z,3.00
2023-05-19T10:02:53.334Z,2.45
2023-05-19T10:07:56.423Z,2.15
2023-05-19T10:13:00.550Z,2.72
2023-05-19T10:18:04.095Z,2.70
2023-05-19T10:23:07.304Z,2.30
2023-05-19T10:28:15.460Z,3.45
2023-05-19T10:33:21.561Z,2.45
2023-05-19T10:38:57.137Z,3.05
2023-05-19T10:44:29.488Z,2.53
2023-05-19T10:49:36.090Z,2.95
2023-05-19T10:54:47.715Z,3.08
2023-05-19T10:59:51.277Z,3.08
2023-05-19T11:04:58.656Z,2.45
2023-05-19T11:10:07.358Z,3.13
2023-05-19T11:15:12.765Z,2.20
2023-05-19T11:20:27.836Z,2.80
2023-05-19T11:25:48.231Z,2.90
2023-05-19T11:30:54.209Z,2.90
2023-05-19T11:35:58.781Z,3.00
2023-05-19T11:41:03.900Z,2.83
2023-05-19T11:46:07.064Z,3.33
2023-05-19T11:51:10.236Z,3.13
2023-05-19T11:56:13.366Z,2.80
2023-05-19T12:01:16.867Z,2.65
2023-05-19T12:06:20.058Z,3.35
2023-05-19T12:11:24.568Z,2.80
2023-05-19T12:16:35.080Z,2.28
2023-05-19T12:21:38.657Z,2.95
2023-05-19T12:26:41.824Z,2.60
2023-05-19T12:31:47.645Z,2.67
2023-05-19T12:36:50.910Z,2.45
2023-05-19T12:41:54.782Z,2.40
2023-05-19T12:46:59.870Z,3.50
2023-05-19T12:52:07.170Z,2.97
2023-05-19T12:57:13.728Z,2.20
2023-05-19T13:02:18.672Z,3.13
2023-05-19T13:07:21.843Z,2.35
2023-05-19T13:12:26.344Z,3.42
2023-05-19T13:17:29.837Z,3.35
2023-05-19T13:22:33.315Z,2.97
2023-05-19T13:27:36.588Z,3.47
2023-05-19T13:32:40.053Z,2.60
2023-05-19T13:37:43.562Z,3.85
2023-05-19T13:42:46.939Z,2.25
2023-05-19T13:47:50.272Z,3.55
2023-05-19T13:52:54.306Z,3.65
2023-05-19T13:57:57.594Z,3.55
2023-05-19T14:03:00.924Z,3.45
2023-05-19T14:08:05.854Z,4.70
2023-05-19T14:18:16.909Z,4.85
2023-05-19T14:23:21.848Z,3.45
2023-05-19T14:33:27.907Z,4.22
2023-05-19T14:38:31.582Z,4.70
2023-05-19T14:43:34.759Z,3.78
2023-05-19T14:48:37.983Z,4.20
2023-05-19T14:53:41.334Z,3.80
2023-05-19T14:58:44.450Z,4.35
2023-05-19T15:03:47.633Z,5.00
2023-05-19T15:08:50.798Z,5.00
2023-05-19T15:13:53.907Z,4.80
2023-05-19T15:18:57.156Z,3.50
2023-05-19T15:24:00.317Z,4.72
2023-05-19T15:29:03.587Z,4.47
2023-05-19T15:34:06.725Z,6.85
2023-05-19T15:39:10.275Z,4.20
2023-05-19T15:44:13.536Z,2.78
2023-05-19T15:49:18.217Z,3.03
2023-05-19T15:54:21.333Z,3.38
2023-05-19T15:59:24.607Z,3.38
2023-05-19T16:04:27.730Z,4.70
2023-05-19T16:09:31.028Z,5.22
2023-05-19T16:14:36.866Z,5.30
2023-05-19T16:19:41.543Z,6.00
2023-05-19T16:24:44.635Z,6.70
2023-05-19T16:29:47.846Z,7.38
2023-05-19T16:34:51.013Z,6.25
2023-05-19T16:39:54.187Z,5.70
2023-05-19T16:44:57.239Z,7.70
2023-05-19T16:50:00.373Z,7.07
2023-05-19T16:55:03.569Z,5.50
2023-05-19T17:00:07.573Z,4.43
2023-05-19T17:05:29.371Z,4.43
2023-05-19T17:10:33.960Z,5.25
2023-05-19T17:15:56.236Z,5.22
2023-05-19T17:21:03.967Z,6.85
2023-05-19T17:26:07.523Z,8.88
2023-05-19T17:31:12.759Z,5.95
2023-05-19T17:36:16.085Z,4.80
2023-05-19T17:41:19.270Z,4.13
2023-05-19T17:46:23.534Z,3.97
2023-05-19T17:51:27.075Z,5.15
2023-05-19T17:56:34.567Z,4.82
2023-05-19T18:01:37.925Z,5.88
2023-05-19T18:06:44.084Z,8.05
2023-05-19T18:11:47.164Z,7.43
2023-05-19T18:16:50.424Z,6.32
2023-05-19T18:21:53.651Z,8.50
2023-05-19T18:26:56.836Z,5.85
2023-05-19T18:32:00.096Z,7.50
2023-05-19T18:37:03.417Z,6.05
2023-05-19T18:42:08.263Z,5.63
2023-05-19T18:47:11.949Z,4.30
2023-05-19T18:52:15.760Z,4.22
2023-05-19T18:57:18.833Z,4.90
2023-05-19T19:02:22.060Z,5.43
2023-05-19T19:07:27.192Z,4.80
2023-05-19T19:12:30.309Z,5.03
2023-05-19T19:17:33.477Z,4.85
2023-05-19T19:22:36.714Z,4.20
2023-05-19T19:27:39.839Z,5.88
2023-05-19T19:32:43.018Z,7.88
2023-05-19T19:37:47.250Z,5.72
2023-05-19T19:42:50.409Z,4.55
2023-05-19T19:47:53.849Z,5.30
2023-05-19T19:52:57.024Z,5.32
2023-05-19T19:58:00.155Z,5.10
2023-05-19T20:03:05.466Z,6.18
2023-05-19T20:08:09.064Z,6.30
2023-05-19T20:13:12.200Z,5.90
2023-05-19T20:18:15.716Z,5.38
2023-05-19T20:23:18.991Z,6.32
2023-05-19T20:28:23.275Z,6.07
2023-05-19T20:33:27.385Z,6.20
2023-05-19T20:38:30.656Z,5.85
2023-05-19T20:43:34.179Z,7.53
2023-05-19T20:48:37.363Z,6.47
2023-05-19T20:53:40.640Z,5.68
2023-05-19T20:58:43.755Z,5.88
2023-05-19T21:03:46.850Z,7.65
2023-05-19T21:08:49.945Z,5.90
2023-05-19T21:13:54.464Z,5.20
2023-05-19T21:18:57.532Z,6.07
2023-05-19T21:24:01.105Z,6.30
2023-05-19T21:29:04.224Z,5.90
2023-05-19T21:34:10.281Z,5.72
2023-05-19T21:39:13.824Z,5.15
2023-05-19T21:44:18.809Z,5.55
2023-05-19T21:49:27.205Z,5.55
2023-05-19T21:54:30.873Z,5.47
2023-05-19T21:59:33.929Z,5.93
2023-05-19T22:04:37.538Z,5.43
2023-05-19T22:09:40.825Z,6.53
2023-05-19T22:14:43.896Z,6.72
2023-05-19T22:19:46.912Z,6.68
2023-05-19T22:24:50.031Z,7.10
2023-05-19T22:29:53.062Z,7.38
2023-05-19T22:34:56.338Z,9.15
2023-05-19T22:39:59.433Z,9.07
2023-05-19T22:45:02.697Z,9.02
2023-05-19T22:50:10.523Z,9.13
2023-05-19T22:55:13.722Z,8.80
2023-05-19T23:00:20.990Z,9.23
2023-05-19T23:05:24.276Z,9.57
2023-05-19T23:10:27.491Z,9.52
2023-05-19T23:15:30.553Z,10.55
2023-05-19T23:20:34.782Z,9.52
2023-05-19T23:25:37.873Z,10.65
2023-05-19T23:30:41.085Z,9.85
2023-05-19T23:35:46.549Z,9.88
2023-05-19T23:40:49.660Z,10.55
2023-05-19T23:45:52.745Z,11.75
2023-05-19T23:50:56.134Z,10.55
2023-05-19T23:55:59.306Z,9.20
